Sunday, November 19, 2017, 10:33 AM GMT
Back to Local

CYPQ, Peterborough Airport

Location: , , Canada Lat: 44.233
Local Time: 10:33 AM GMT (10:33 GMT) Lon: -78.367
Time Zone: GMT Elev: 626 ft

Show me the last for .
Show Coded

Time T Td Feel RH Dir Speed Gust Alt SLP Vis Weather Sky Remarks
2017-11-19 10:26 30 28 16 92 310° 18 26 29.32 29.34 6 -SN FEW014 OVC046 None
2017-11-19 10:00 30 28 15 92 320° 23 29 29.29 29.32 3 -SN FEW012 OVC027 Pressure rising rapidly
2017-11-19 09:41 30 28 15 92 320° 22 31 29.27 29.29 3 -SN FEW010 OVC025 Pressure rising rapidly
2017-11-19 09:40 30 28 15 92 320° 20 29 29.27 29.29 2 -SN FEW010 OVC025 Pressure rising rapidly
2017-11-19 09:28 30 30 17 100 320° 17 23 29.26 29.28 2 -SN FEW010 SCT018 BKN023 OVC030 None
2017-11-19 09:22 30 30 18 100 320° 13 20 29.25 29.28 2 -SN FEW010 SCT017 BKN025 OVC030 None
2017-11-19 09:08 30 30 16 100 340° 18 25 29.25 29.27 2 -SN SCT012 BKN017 OVC030 None
2017-11-19 09:01 30 30 17 100 330° 14 22 29.24 29.26 1 -SN BKN012 OVC017 None
2017-11-19 09:00 30 30 17 100 330° 14 23 29.24 29.26 1 -SN BKN012 OVC017 None
2017-11-19 08:53 32 30 18 92 340° 16 26 29.24 29.26 1 -SN SCT012 OVC019 None
2017-11-19 08:41 32 30 19 92 340° 16 22 29.23 29.25 2 -SN BKN012 BKN019 OVC033 None
2017-11-19 08:39 32 30 20 92 320° 14 20 29.23 29.25 2 -SN BKN012 BKN019 OVC033 None
2017-11-19 08:24 32 30 19 92 340° 15 22 29.21 29.24 5 -SN BKN014 BKN018 OVC028 None
2017-11-19 08:17 32 30 19 92 350° 17 24 29.21 29.24 6 -SN BKN014 OVC028 None
2017-11-19 08:00 32 30 18 92 340° 16 26 29.21 29.23 5 -SN FEW009 BKN014 BKN019 OVC028 Pressure rising rapidly
2017-11-19 07:50 32 30 18 92 350° 16 28 29.19 29.21 6 -SN SCT009 OVC016 Pressure rising rapidly
2017-11-19 07:40 32 32 18 100 350° 22 30 29.18 29.20 3 -SN SCT009 BKN014 OVC020 None
2017-11-19 07:28 34 32 21 93 350° 16 26 29.17 29.19 3 -SN BKN009 OVC014 None
2017-11-19 07:19 34 32 21 93 340° 16 28 29.17 29.19 5 -SN SCT009 OVC016 Pressure rising rapidly
2017-11-19 07:18 34 32 21 93 340° 17 28 29.16 29.18 5 -SN BKN009 BKN014 OVC020 Pressure rising rapidly
2017-11-19 07:15 34 34 21 100 340° 20 28 29.16 29.18 6 -SN BKN009 OVC017 None
2017-11-19 07:06 34 34 24 100 340° 14 - 29.15 29.17 5 -SN BKN009 OVC017 None
2017-11-19 07:02 34 34 23 100 340° 13 18 29.15 29.17 9 -RASN BKN011 OVC017 None
2017-11-19 07:00 34 34 22 100 340° 14 21 29.15 29.17 9 -RA BKN011 OVC017 None
2017-11-19 06:53 36 34 24 93 340° 13 23 29.15 29.17 9 -RA BKN011 OVC017 None
2017-11-19 06:00 36 36 25 100 350° 12 17 29.14 29.16 9 -RA OVC009 None
2017-11-19 05:55 36 36 25 100 350° 12 17 29.14 29.16 9 -RA OVC009 None
2017-11-19 05:17 37 37 30 100 340° 10 - 29.13 29.15 6 RA BR OVC005 None
2017-11-19 05:07 37 37 30 100 360° 12 - 29.12 29.15 3 RA BR OVC005 None
2017-11-19 05:02 37 37 29 100 10° 13 - 29.12 29.14 2 -RA BR OVC005 None
2017-11-19 05:00 37 37 30 100 10° 12 - 29.12 29.14 2 RA BR OVC005 None
2017-11-19 04:51 37 37 30 100 10° 12 - 29.11 29.13 2 -RA BR OVC005 None
2017-11-19 04:32 37 37 31 100 30° 9 - 29.11 29.13 5 -RA BR OVC005 None
2017-11-19 04:00 37 37 31 100 40° 9 - 29.12 29.15 9 -RA OVC005 None
2017-11-19 03:56 37 37 31 100 40° 8 - 29.12 29.15 6 -RA BR OVC005 None
2017-11-19 03:00 39 39 32 100 30° 10 - 29.17 29.19 3 RA BR OVC005 None
2017-11-19 02:49 39 39 34 100 20° 8 - 29.19 29.21 5 -RA BR OVC005 None
2017-11-19 02:22 39 39 34 100 30° 8 - 29.18 29.20 6 -RA BR BKN005 OVC008 None
2017-11-19 02:00 39 39 34 100 40° 8 - 29.19 29.21 3 RA BR BKN005 OVC008 Pressure falling rapidly
2017-11-19 01:58 39 39 34 100 40° 8 - 29.19 29.21 3 -RA BR OVC005 Pressure falling rapidly
2017-11-19 01:00 41 41 37 100 30° 6 - 29.22 29.24 4 -RA BR OVC003 Pressure falling rapidly
2017-11-19 00:48 41 41 36 100 30° 8 - 29.24 29.26 3 -RA BR OVC003 None
2017-11-19 00:38 41 41 36 100 30° 7 - 29.24 29.26 2 -RA BR OVC003 Pressure falling rapidly
2017-11-19 00:33 41 41 37 100 30° 6 - 29.25 29.27 2 RA BR OVC003 None
2017-11-19 00:25 41 41 36 100 30° 7 - 29.25 29.28 2 -RA BR OVC003 None
2017-11-19 00:00 41 41 36 100 10° 7 - 29.27 29.29 3 -RA BR OVC003 None
2017-11-18 23:13 41 41 39 100 70° 3 - 29.30 29.32 3 -RA BR BKN003 OVC008 None
2017-11-18 23:10 41 41 38 100 90° 5 - 29.31 29.33 2 RA BR BKN003 OVC008 None
2017-11-18 23:00 41 41 39 100 80° 3 - 29.30 29.32 1 RA BR OVC003 None
2017-11-18 22:48 41 41 - 100 Variable 2 - 29.32 29.34 1 -RA BR OVC003 None
2017-11-18 22:31 41 41 39 100 60° 3 - 29.32 29.34 1 -RA BR OVC003 None
2017-11-18 22:00 41 41 39 100 60° 3 - 29.33 29.35 1 -RA BR VV003 None
2017-11-18 21:35 39 39 36 100 40° 5 - 29.34 29.37 1 -RA BR OVC002 None
2017-11-18 21:34 39 39 37 100 40° 3 - 29.35 29.37 1 BR OVC002 None
2017-11-18 21:00 39 39 36 100 40° 5 - 29.36 29.38 1 -RA BR OVC002 None
2017-11-18 20:00 39 39 37 100 60° 3 - 29.38 29.40 1 -RA BR OVC002 None
2017-11-18 19:57 39 39 37 100 60° 3 - 29.38 29.41 1 -RA BR OVC002 None
2017-11-18 19:00 39 39 37 100 50° 3 - 29.43 29.45 1 -RA BR OVC004 Pressure falling rapidly
2017-11-18 18:00 39 39 37 100 50° 3 - 29.45 29.48 1 -RA BR OVC004 None
2017-11-18 17:36 39 39 37 100 40° 3 - 29.46 29.48 2 -RA BR OVC004 None
2017-11-18 17:29 37 37 34 100 50° 5 - 29.46 29.49 2 -RA BR OVC004 None
2017-11-18 17:09 37 37 - 100 Variable 2 - 29.48 29.50 2 BR OVC004 None
2017-11-18 17:08 37 37 - 100 Variable 2 - 29.48 29.51 2 BR OVC006 None
2017-11-18 17:00 39 37 36 93 40° 5 - 29.47 29.50 3 BR OVC006 None
2017-11-18 16:48 37 37 35 100 70° 3 - 29.47 29.50 4 BR OVC006 None
2017-11-18 16:35 37 37 35 100 70° 3 - 29.48 29.50 5 BR BKN008 OVC017 Pressure falling rapidly
2017-11-18 16:00 37 36 34 93 50° 5 - 29.52 29.55 9 SCT017 OVC024 None
2017-11-18 15:54 37 36 35 93 Variable 3 - 29.53 29.55 9 BKN022 OVC027 None
2017-11-18 15:16 37 36 34 93 40° 5 - 29.54 29.57 9 BKN025 OVC034 Pressure falling rapidly
2017-11-18 15:00 36 36 33 100 100° 3 - 29.57 29.59 7 BKN023 OVC029 None
2017-11-18 14:58 36 36 33 100 70° 3 - 29.57 29.59 7 BKN023 OVC029 None
2017-11-18 14:55 36 36 - 100 Variable 2 - 29.57 29.59 9 OVC025 None
2017-11-18 14:54 36 36 - 100 Variable 2 - 29.57 29.60 9 BKN023 OVC029 None
2017-11-18 14:00 36 36 33 100 70° 3 - 29.56 29.59 9 OVC033 None
2017-11-18 13:02 34 34 29 100 20° 6 - 29.60 29.63 9 BKN030 OVC055 None
2017-11-18 13:00 34 34 30 100 10° 5 - 29.60 29.63 9 -RA BKN030 BKN049 OVC060 None
2017-11-18 12:43 34 34 31 100 30° 3 - 29.61 29.63 9 -RA OVC055 None
2017-11-18 12:37 34 34 - 100 20° 2 - 29.61 29.64 9 -RA -UP OVC060 None
2017-11-18 12:32 34 34 31 100 20° 3 - 29.61 29.64 6 -UP BR OVC060 None
2017-11-18 12:26 34 34 31 100 30° 3 - 29.61 29.64 6 -RA -UP BR OVC060 None
2017-11-18 12:10 34 34 30 100 50° 5 - 29.61 29.63 7 -RA OVC060 Pressure falling rapidly
2017-11-18 12:00 34 34 31 100 60° 3 - 29.62 29.65 7 -RA -UP OVC060 None
2017-11-18 11:57 34 34 - 100 60° 2 - 29.62 29.65 7 -RA -UP OVC055 None
2017-11-18 11:23 34 32 29 93 60° 6 - 29.65 29.67 9 -RA SCT060 BKN078 OVC095 Pressure falling rapidly
2017-11-18 11:00 34 32 29 93 30° 6 - 29.66 29.68 9 BKN100 OVC130 None

Support USWX by starting your Amazon purchase here.